sensor_id;sensor_type;location;lat;lon;timestamp;temperature;humidity
19224;DHT22;9746;47.180;9.776;2023-03-23T08:15:29;14.80;99.90
19224;DHT22;9746;47.180;9.776;2023-03-23T08:17:58;15.10;99.90
19224;DHT22;9746;47.180;9.776;2023-03-23T08:20:43;15.30;99.90
19224;DHT22;9746;47.180;9.776;2023-03-23T08:23:11;15.50;99.90
19224;DHT22;9746;47.180;9.776;2023-03-23T08:25:52;15.80;99.90
19224;DHT22;9746;47.180;9.776;2023-03-23T08:28:20;16.00;99.90
19224;DHT22;9746;47.180;9.776;2023-03-23T08:31:16;16.20;99.90
19224;DHT22;9746;47.180;9.776;2023-03-23T08:33:44;16.40;99.90
19224;DHT22;9746;47.180;9.776;2023-03-23T08:36:45;16.60;99.90
19224;DHT22;9746;47.180;9.776;2023-03-23T08:39:13;16.70;99.90
19224;DHT22;9746;47.180;9.776;2023-03-23T08:41:57;16.70;99.90
19224;DHT22;9746;47.180;9.776;2023-03-23T08:44:25;16.80;99.90
19224;DHT22;9746;47.180;9.776;2023-03-23T08:47:05;16.70;99.90
19224;DHT22;9746;47.180;9.776;2023-03-23T08:49:33;16.80;99.90
19224;DHT22;9746;47.180;9.776;2023-03-23T08:52:11;16.90;99.90
19224;DHT22;9746;47.180;9.776;2023-03-23T08:54:40;17.10;99.90
19224;DHT22;9746;47.180;9.776;2023-03-23T08:57:16;17.20;99.90
19224;DHT22;9746;47.180;9.776;2023-03-23T08:59:45;17.30;99.90
19224;DHT22;9746;47.180;9.776;2023-03-23T09:02:24;17.30;99.90
19224;DHT22;9746;47.180;9.776;2023-03-23T09:04:52;17.30;99.90
19224;DHT22;9746;47.180;9.776;2023-03-23T09:07:41;17.40;99.90
19224;DHT22;9746;47.180;9.776;2023-03-23T09:10:09;17.50;99.90
19224;DHT22;9746;47.180;9.776;2023-03-23T09:12:37;17.60;99.90
19224;DHT22;9746;47.180;9.776;2023-03-23T09:15:07;17.70;99.90
19224;DHT22;9746;47.180;9.776;2023-03-23T09:17:42;17.80;99.90
19224;DHT22;9746;47.180;9.776;2023-03-23T09:20:13;18.10;99.90
19224;DHT22;9746;47.180;9.776;2023-03-23T09:22:45;18.30;99.90
19224;DHT22;9746;47.180;9.776;2023-03-23T09:25:18;18.50;99.90
19224;DHT22;9746;47.180;9.776;2023-03-23T09:27:49;18.70;99.90
19224;DHT22;9746;47.180;9.776;2023-03-23T09:30:19;18.80;99.90
19224;DHT22;9746;47.180;9.776;2023-03-23T09:32:49;18.90;99.90
19224;DHT22;9746;47.180;9.776;2023-03-23T09:35:17;18.90;99.90
19224;DHT22;9746;47.180;9.776;2023-03-23T09:37:49;19.00;99.90
19224;DHT22;9746;47.180;9.776;2023-03-23T09:40:19;19.00;99.90
19224;DHT22;9746;47.180;9.776;2023-03-23T09:43:07;19.00;99.90
19224;DHT22;9746;47.180;9.776;2023-03-23T09:45:47;19.00;99.90
19224;DHT22;9746;47.180;9.776;2023-03-23T09:48:36;19.10;99.90
19224;DHT22;9746;47.180;9.776;2023-03-23T09:54:30;19.20;99.90
19224;DHT22;9746;47.180;9.776;2023-03-23T09:57:00;19.10;99.90
19224;DHT22;9746;47.180;9.776;2023-03-23T09:59:34;19.10;99.90
19224;DHT22;9746;47.180;9.776;2023-03-23T10:02:10;19.20;99.90
19224;DHT22;9746;47.180;9.776;2023-03-23T10:04:44;19.30;99.90
19224;DHT22;9746;47.180;9.776;2023-03-23T10:07:15;19.30;99.90
19224;DHT22;9746;47.180;9.776;2023-03-23T10:09:45;19.40;99.90
19224;DHT22;9746;47.180;9.776;2023-03-23T10:12:21;19.40;99.90
19224;DHT22;9746;47.180;9.776;2023-03-23T10:15:07;19.50;99.90
19224;DHT22;9746;47.180;9.776;2023-03-23T10:17:42;19.60;99.90
19224;DHT22;9746;47.180;9.776;2023-03-23T10:20:23;19.70;99.90
19224;DHT22;9746;47.180;9.776;2023-03-23T10:23:24;19.80;99.90
19224;DHT22;9746;47.180;9.776;2023-03-23T10:26:04;19.80;99.90
19224;DHT22;9746;47.180;9.776;2023-03-23T10:28:37;20.00;99.90
19224;DHT22;9746;47.180;9.776;2023-03-23T10:31:22;20.20;99.90
19224;DHT22;9746;47.180;9.776;2023-03-23T10:33:53;20.30;99.90
19224;DHT22;9746;47.180;9.776;2023-03-23T10:36:54;20.40;99.90
19224;DHT22;9746;47.180;9.776;2023-03-23T10:39:26;20.60;99.90
19224;DHT22;9746;47.180;9.776;2023-03-23T10:41:56;20.90;99.90
19224;DHT22;9746;47.180;9.776;2023-03-23T10:44:29;21.10;99.90
19224;DHT22;9746;47.180;9.776;2023-03-23T10:47:06;21.30;99.90
19224;DHT22;9746;47.180;9.776;2023-03-23T10:49:41;21.50;99.90
19224;DHT22;9746;47.180;9.776;2023-03-23T10:52:22;21.70;99.90
19224;DHT22;9746;47.180;9.776;2023-03-23T10:54:56;21.90;99.90
19224;DHT22;9746;47.180;9.776;2023-03-23T10:57:39;21.90;99.90
19224;DHT22;9746;47.180;9.776;2023-03-23T11:00:17;22.10;99.90
19224;DHT22;9746;47.180;9.776;2023-03-23T11:02:58;22.30;99.90
19224;DHT22;9746;47.180;9.776;2023-03-23T11:05:36;22.40;99.90
19224;DHT22;9746;47.180;9.776;2023-03-23T11:08:13;22.60;99.90
19224;DHT22;9746;47.180;9.776;2023-03-23T11:14:14;22.60;99.90
19224;DHT22;9746;47.180;9.776;2023-03-23T11:16:50;22.90;99.90
19224;DHT22;9746;47.180;9.776;2023-03-23T11:19:24;23.20;99.90
19224;DHT22;9746;47.180;9.776;2023-03-23T11:22:06;23.50;99.90
19224;DHT22;9746;47.180;9.776;2023-03-23T11:24:41;23.50;99.90
19224;DHT22;9746;47.180;9.776;2023-03-23T11:27:16;23.60;99.90
19224;DHT22;9746;47.180;9.776;2023-03-23T11:29:48;23.70;99.80
19224;DHT22;9746;47.180;9.776;2023-03-23T11:35:36;24.50;98.30
19224;DHT22;9746;47.180;9.776;2023-03-23T11:38:24;24.90;96.40
19224;DHT22;9746;47.180;9.776;2023-03-23T11:41:09;24.90;93.10
19224;DHT22;9746;47.180;9.776;2023-03-23T11:43:46;25.20;93.20
19224;DHT22;9746;47.180;9.776;2023-03-23T11:46:34;25.50;92.40
19224;DHT22;9746;47.180;9.776;2023-03-23T11:49:08;25.70;92.00
19224;DHT22;9746;47.180;9.776;2023-03-23T11:51:48;25.80;90.50
19224;DHT22;9746;47.180;9.776;2023-03-23T11:54:21;26.20;89.30
19224;DHT22;9746;47.180;9.776;2023-03-23T11:56:56;26.70;87.60
19224;DHT22;9746;47.180;9.776;2023-03-23T11:59:29;27.10;88.10
19224;DHT22;9746;47.180;9.776;2023-03-23T12:02:34;27.30;87.80
19224;DHT22;9746;47.180;9.776;2023-03-23T12:05:27;27.40;86.40
19224;DHT22;9746;47.180;9.776;2023-03-23T12:10:53;27.90;81.00
19224;DHT22;9746;47.180;9.776;2023-03-23T12:13:37;28.90;81.00
19224;DHT22;9746;47.180;9.776;2023-03-23T12:16:16;29.80;79.20
19224;DHT22;9746;47.180;9.776;2023-03-23T12:18:54;30.10;76.80
19224;DHT22;9746;47.180;9.776;2023-03-23T12:21:31;30.50;75.50
19224;DHT22;9746;47.180;9.776;2023-03-23T12:24:05;30.40;73.80
19224;DHT22;9746;47.180;9.776;2023-03-23T12:26:40;30.50;72.10
19224;DHT22;9746;47.180;9.776;2023-03-23T12:29:39;30.00;71.30
19224;DHT22;9746;47.180;9.776;2023-03-23T12:32:40;29.40;70.30
19224;DHT22;9746;47.180;9.776;2023-03-23T12:35:18;29.70;72.70
19224;DHT22;9746;47.180;9.776;2023-03-23T12:38:01;30.10;69.80
19224;DHT22;9746;47.180;9.776;2023-03-23T12:40:43;30.30;70.10
19224;DHT22;9746;47.180;9.776;2023-03-23T12:43:25;30.60;70.50
19224;DHT22;9746;47.180;9.776;2023-03-23T12:48:51;31.50;67.70
19224;DHT22;9746;47.180;9.776;2023-03-23T12:51:24;31.70;67.70
19224;DHT22;9746;47.180;9.776;2023-03-23T12:53:58;31.30;67.10
19224;DHT22;9746;47.180;9.776;2023-03-23T12:56:41;31.20;66.30
19224;DHT22;9746;47.180;9.776;2023-03-23T12:59:15;30.90;66.70
19224;DHT22;9746;47.180;9.776;2023-03-23T13:01:51;30.40;67.20
19224;DHT22;9746;47.180;9.776;2023-03-23T13:04:23;29.70;68.10
19224;DHT22;9746;47.180;9.776;2023-03-23T13:07:02;29.30;68.20
19224;DHT22;9746;47.180;9.776;2023-03-23T13:09:46;29.10;68.60
19224;DHT22;9746;47.180;9.776;2023-03-23T13:12:38;29.20;68.80
19224;DHT22;9746;47.180;9.776;2023-03-23T13:15:18;29.40;68.10
19224;DHT22;9746;47.180;9.776;2023-03-23T13:18:00;30.00;67.50
19224;DHT22;9746;47.180;9.776;2023-03-23T13:23:23;30.30;65.60
19224;DHT22;9746;47.180;9.776;2023-03-23T13:25:58;29.70;67.00
19224;DHT22;9746;47.180;9.776;2023-03-23T13:28:57;29.90;67.40
19224;DHT22;9746;47.180;9.776;2023-03-23T13:31:29;29.90;66.10
19224;DHT22;9746;47.180;9.776;2023-03-23T13:34:05;29.80;66.30
19224;DHT22;9746;47.180;9.776;2023-03-23T13:36:42;30.00;65.60
19224;DHT22;9746;47.180;9.776;2023-03-23T13:39:20;30.10;66.00
19224;DHT22;9746;47.180;9.776;2023-03-23T13:42:05;31.00;65.60
19224;DHT22;9746;47.180;9.776;2023-03-23T13:44:56;32.10;64.10
19224;DHT22;9746;47.180;9.776;2023-03-23T13:47:35;32.90;62.90
19224;DHT22;9746;47.180;9.776;2023-03-23T13:50:12;33.70;60.00
19224;DHT22;9746;47.180;9.776;2023-03-23T13:52:52;33.30;59.50
19224;DHT22;9746;47.180;9.776;2023-03-23T13:58:43;33.10;60.60
19224;DHT22;9746;47.180;9.776;2023-03-23T14:01:14;32.50;59.70
19224;DHT22;9746;47.180;9.776;2023-03-23T14:03:47;33.10;60.40
19224;DHT22;9746;47.180;9.776;2023-03-23T14:06:21;33.10;58.80
19224;DHT22;9746;47.180;9.776;2023-03-23T14:08:54;32.40;59.30
19224;DHT22;9746;47.180;9.776;2023-03-23T14:11:23;31.40;59.80
19224;DHT22;9746;47.180;9.776;2023-03-23T14:17:22;29.50;64.20
19224;DHT22;9746;47.180;9.776;2023-03-23T14:19:53;29.60;63.90
19224;DHT22;9746;47.180;9.776;2023-03-23T14:22:25;29.10;64.10
19224;DHT22;9746;47.180;9.776;2023-03-23T14:25:00;28.60;65.80
19224;DHT22;9746;47.180;9.776;2023-03-23T14:27:35;28.20;65.80
19224;DHT22;9746;47.180;9.776;2023-03-23T14:30:07;27.90;65.70
19224;DHT22;9746;47.180;9.776;2023-03-23T14:32:36;27.10;66.60
19224;DHT22;9746;47.180;9.776;2023-03-23T14:35:08;26.20;68.60
19224;DHT22;9746;47.180;9.776;2023-03-23T14:37:47;25.70;70.60
19224;DHT22;9746;47.180;9.776;2023-03-23T14:40:18;25.40;71.30
19224;DHT22;9746;47.180;9.776;2023-03-23T14:42:51;25.20;72.90
19224;DHT22;9746;47.180;9.776;2023-03-23T14:45:21;24.40;73.10
19224;DHT22;9746;47.180;9.776;2023-03-23T14:47:56;23.90;74.20
19224;DHT22;9746;47.180;9.776;2023-03-23T14:50:38;23.60;75.30
19224;DHT22;9746;47.180;9.776;2023-03-23T14:53:13;23.10;76.70
19224;DHT22;9746;47.180;9.776;2023-03-23T14:55:47;22.60;77.80
19224;DHT22;9746;47.180;9.776;2023-03-23T14:58:21;22.30;78.60
19224;DHT22;9746;47.180;9.776;2023-03-23T15:00:54;22.00;79.90
19224;DHT22;9746;47.180;9.776;2023-03-23T15:03:34;21.80;80.60
19224;DHT22;9746;47.180;9.776;2023-03-23T15:06:06;21.40;81.20
19224;DHT22;9746;47.180;9.776;2023-03-23T15:09:07;21.10;82.20
19224;DHT22;9746;47.180;9.776;2023-03-23T15:11:40;21.00;83.40
19224;DHT22;9746;47.180;9.776;2023-03-23T15:14:14;21.00;84.00
19224;DHT22;9746;47.180;9.776;2023-03-23T15:16:47;20.80;84.20
19224;DHT22;9746;47.180;9.776;2023-03-23T15:19:31;20.60;85.00
19224;DHT22;9746;47.180;9.776;2023-03-23T15:22:16;20.50;85.30
19224;DHT22;9746;47.180;9.776;2023-03-23T15:24:48;20.30;86.00
19224;DHT22;9746;47.180;9.776;2023-03-23T15:27:18;20.10;86.00
19224;DHT22;9746;47.180;9.776;2023-03-23T15:29:55;20.10;86.30
19224;DHT22;9746;47.180;9.776;2023-03-23T15:32:25;19.90;86.90
19224;DHT22;9746;47.180;9.776;2023-03-23T15:34:54;19.80;87.00
19224;DHT22;9746;47.180;9.776;2023-03-23T15:37:26;19.80;87.50
19224;DHT22;9746;47.180;9.776;2023-03-23T15:39:59;19.90;87.80
19224;DHT22;9746;47.180;9.776;2023-03-23T15:42:32;19.90;88.00
19224;DHT22;9746;47.180;9.776;2023-03-23T15:45:23;19.80;87.50
19224;DHT22;9746;47.180;9.776;2023-03-23T15:48:04;19.80;87.70
19224;DHT22;9746;47.180;9.776;2023-03-23T15:50:34;19.60;87.80
19224;DHT22;9746;47.180;9.776;2023-03-23T15:53:26;19.50;88.10
19224;DHT22;9746;47.180;9.776;2023-03-23T15:56:01;19.50;88.70
19224;DHT22;9746;47.180;9.776;2023-03-23T15:58:30;19.40;88.40
19224;DHT22;9746;47.180;9.776;2023-03-23T16:01:03;19.30;88.80
19224;DHT22;9746;47.180;9.776;2023-03-23T16:03:59;19.30;88.80
19224;DHT22;9746;47.180;9.776;2023-03-23T16:06:46;19.30;89.30
19224;DHT22;9746;47.180;9.776;2023-03-23T16:09:18;19.20;89.60
19224;DHT22;9746;47.180;9.776;2023-03-23T16:11:48;19.10;89.60
19224;DHT22;9746;47.180;9.776;2023-03-23T16:14:16;19.10;89.90
19224;DHT22;9746;47.180;9.776;2023-03-23T16:16:47;19.10;90.20
19224;DHT22;9746;47.180;9.776;2023-03-23T16:19:19;19.00;90.20
19224;DHT22;9746;47.180;9.776;2023-03-23T16:21:49;18.90;90.30
19224;DHT22;9746;47.180;9.776;2023-03-23T16:24:18;18.80;90.50
19224;DHT22;9746;47.180;9.776;2023-03-23T16:26:49;18.70;90.40
19224;DHT22;9746;47.180;9.776;2023-03-23T16:29:18;18.70;90.60
19224;DHT22;9746;47.180;9.776;2023-03-23T16:31:48;18.70;90.60
19224;DHT22;9746;47.180;9.776;2023-03-23T16:34:21;18.60;90.70
19224;DHT22;9746;47.180;9.776;2023-03-23T16:36:49;18.70;90.90
19224;DHT22;9746;47.180;9.776;2023-03-23T16:39:18;18.70;90.90
19224;DHT22;9746;47.180;9.776;2023-03-23T16:41:47;18.80;91.10
19224;DHT22;9746;47.180;9.776;2023-03-23T16:44:21;18.80;91.00
19224;DHT22;9746;47.180;9.776;2023-03-23T16:46:48;18.80;91.20
19224;DHT22;9746;47.180;9.776;2023-03-23T16:49:40;18.80;91.20
19224;DHT22;9746;47.180;9.776;2023-03-23T16:52:07;18.80;91.70
19224;DHT22;9746;47.180;9.776;2023-03-23T16:54:41;18.80;91.70
19224;DHT22;9746;47.180;9.776;2023-03-23T16:57:10;18.80;91.70
19224;DHT22;9746;47.180;9.776;2023-03-23T16:59:43;18.80;92.00
19224;DHT22;9746;47.180;9.776;2023-03-23T17:02:11;18.80;92.10
19224;DHT22;9746;47.180;9.776;2023-03-23T17:04:46;18.70;92.30
19224;DHT22;9746;47.180;9.776;2023-03-23T17:07:14;18.70;92.60
19224;DHT22;9746;47.180;9.776;2023-03-23T17:09:42;18.60;93.70
19224;DHT22;9746;47.180;9.776;2023-03-23T17:12:11;18.60;93.80
19224;DHT22;9746;47.180;9.776;2023-03-23T17:14:38;18.50;94.30
19224;DHT22;9746;47.180;9.776;2023-03-23T17:17:06;18.30;95.20
19224;DHT22;9746;47.180;9.776;2023-03-23T17:19:36;18.30;95.30
19224;DHT22;9746;47.180;9.776;2023-03-23T17:22:04;18.10;95.10
19224;DHT22;9746;47.180;9.776;2023-03-23T17:24:38;18.00;95.30
19224;DHT22;9746;47.180;9.776;2023-03-23T17:27:07;17.90;95.40
19224;DHT22;9746;47.180;9.776;2023-03-23T17:29:51;17.80;95.80
19224;DHT22;9746;47.180;9.776;2023-03-23T17:32:19;17.70;96.40
19224;DHT22;9746;47.180;9.776;2023-03-23T17:34:50;17.70;96.00
19224;DHT22;9746;47.180;9.776;2023-03-23T17:37:20;17.60;96.50
19224;DHT22;9746;47.180;9.776;2023-03-23T17:39:49;17.50;96.50
19224;DHT22;9746;47.180;9.776;2023-03-23T17:42:18;17.40;97.30
19224;DHT22;9746;47.180;9.776;2023-03-23T17:44:48;17.30;97.60
19224;DHT22;9746;47.180;9.776;2023-03-23T17:47:20;17.20;97.50
19224;DHT22;9746;47.180;9.776;2023-03-23T17:49:49;17.20;97.80
19224;DHT22;9746;47.180;9.776;2023-03-23T17:52:17;17.10;98.30
19224;DHT22;9746;47.180;9.776;2023-03-23T17:55:03;17.10;98.80
19224;DHT22;9746;47.180;9.776;2023-03-23T17:57:30;17.00;99.10
19224;DHT22;9746;47.180;9.776;2023-03-23T17:59:59;16.90;99.30
19224;DHT22;9746;47.180;9.776;2023-03-23T18:02:27;16.90;99.90
19224;DHT22;9746;47.180;9.776;2023-03-23T18:04:56;16.80;99.90
19224;DHT22;9746;47.180;9.776;2023-03-23T18:07:24;16.70;99.90
19224;DHT22;9746;47.180;9.776;2023-03-23T18:09:52;16.60;99.90
19224;DHT22;9746;47.180;9.776;2023-03-23T18:12:23;16.50;99.90
19224;DHT22;9746;47.180;9.776;2023-03-23T18:15:05;16.50;99.90
19224;DHT22;9746;47.180;9.776;2023-03-23T18:17:33;16.40;99.90
19224;DHT22;9746;47.180;9.776;2023-03-23T18:20:06;16.30;99.90
19224;DHT22;9746;47.180;9.776;2023-03-23T18:22:34;16.30;99.90
19224;DHT22;9746;47.180;9.776;2023-03-23T18:25:14;16.20;99.90
19224;DHT22;9746;47.180;9.776;2023-03-23T18:27:42;16.10;99.90
19224;DHT22;9746;47.180;9.776;2023-03-23T18:30:10;16.00;99.90
19224;DHT22;9746;47.180;9.776;2023-03-23T18:32:39;15.90;99.90
19224;DHT22;9746;47.180;9.776;2023-03-23T18:35:08;15.80;99.90
19224;DHT22;9746;47.180;9.776;2023-03-23T18:37:37;15.80;99.90
19224;DHT22;9746;47.180;9.776;2023-03-23T18:40:16;15.70;99.90
19224;DHT22;9746;47.180;9.776;2023-03-23T18:42:45;15.70;99.90
19224;DHT22;9746;47.180;9.776;2023-03-23T18:45:15;15.70;99.90
19224;DHT22;9746;47.180;9.776;2023-03-23T18:47:43;15.70;99.90
19224;DHT22;9746;47.180;9.776;2023-03-23T18:50:19;15.80;99.90
19224;DHT22;9746;47.180;9.776;2023-03-23T18:52:46;15.80;99.90
19224;DHT22;9746;47.180;9.776;2023-03-23T18:55:22;15.70;99.90
19224;DHT22;9746;47.180;9.776;2023-03-23T18:57:49;15.60;99.90
19224;DHT22;9746;47.180;9.776;2023-03-23T19:00:27;15.60;99.90
19224;DHT22;9746;47.180;9.776;2023-03-23T19:02:57;15.50;99.90
19224;DHT22;9746;47.180;9.776;2023-03-23T19:05:38;15.40;99.90
19224;DHT22;9746;47.180;9.776;2023-03-23T19:08:07;15.40;99.90
19224;DHT22;9746;47.180;9.776;2023-03-23T19:10:38;15.20;99.90
19224;DHT22;9746;47.180;9.776;2023-03-23T19:13:07;15.10;99.90
19224;DHT22;9746;47.180;9.776;2023-03-23T19:15:39;15.10;99.90
19224;DHT22;9746;47.180;9.776;2023-03-23T19:18:09;15.10;99.90
19224;DHT22;9746;47.180;9.776;2023-03-23T19:20:40;14.90;99.90
19224;DHT22;9746;47.180;9.776;2023-03-23T19:23:08;14.80;99.90
19224;DHT22;9746;47.180;9.776;2023-03-23T19:25:35;14.80;99.90
19224;DHT22;9746;47.180;9.776;2023-03-23T19:28:03;14.80;99.90
19224;DHT22;9746;47.180;9.776;2023-03-23T19:30:42;14.80;99.90
19224;DHT22;9746;47.180;9.776;2023-03-23T19:33:12;14.80;99.90
19224;DHT22;9746;47.180;9.776;2023-03-23T19:35:40;14.80;99.90
19224;DHT22;9746;47.180;9.776;2023-03-23T19:38:07;14.70;99.90
19224;DHT22;9746;47.180;9.776;2023-03-23T19:40:35;14.70;99.90
19224;DHT22;9746;47.180;9.776;2023-03-23T19:43:03;14.60;99.90
19224;DHT22;9746;47.180;9.776;2023-03-23T19:45:32;14.60;99.90
19224;DHT22;9746;47.180;9.776;2023-03-23T19:47:59;14.60;99.90
19224;DHT22;9746;47.180;9.776;2023-03-23T19:50:40;14.60;99.90
19224;DHT22;9746;47.180;9.776;2023-03-23T19:53:07;14.50;99.90
19224;DHT22;9746;47.180;9.776;2023-03-23T19:55:35;14.40;99.90
19224;DHT22;9746;47.180;9.776;2023-03-23T19:58:03;14.40;99.90
19224;DHT22;9746;47.180;9.776;2023-03-23T20:03:35;14.40;99.90
19224;DHT22;9746;47.180;9.776;2023-03-23T20:06:08;14.30;99.90
19224;DHT22;9746;47.180;9.776;2023-03-23T20:08:38;14.20;99.90
19224;DHT22;9746;47.180;9.776;2023-03-23T20:11:28;14.10;99.90
19224;DHT22;9746;47.180;9.776;2023-03-23T20:13:56;14.00;99.90
19224;DHT22;9746;47.180;9.776;2023-03-23T20:16:43;14.00;99.90
19224;DHT22;9746;47.180;9.776;2023-03-23T20:19:10;14.00;99.90
19224;DHT22;9746;47.180;9.776;2023-03-23T20:21:46;13.90;99.90
19224;DHT22;9746;47.180;9.776;2023-03-23T20:24:14;14.00;99.90
19224;DHT22;9746;47.180;9.776;2023-03-23T20:26:42;13.90;99.90
19224;DHT22;9746;47.180;9.776;2023-03-23T20:29:10;13.90;99.90
19224;DHT22;9746;47.180;9.776;2023-03-23T20:31:40;13.90;99.90
19224;DHT22;9746;47.180;9.776;2023-03-23T20:34:09;13.80;99.90
19224;DHT22;9746;47.180;9.776;2023-03-23T20:37:00;13.60;99.90
19224;DHT22;9746;47.180;9.776;2023-03-23T20:39:32;13.50;99.90
19224;DHT22;9746;47.180;9.776;2023-03-23T20:42:02;13.30;99.90
19224;DHT22;9746;47.180;9.776;2023-03-23T20:44:32;13.30;99.90
19224;DHT22;9746;47.180;9.776;2023-03-23T20:47:01;13.30;99.90
19224;DHT22;9746;47.180;9.776;2023-03-23T20:49:29;13.20;99.90
19224;DHT22;9746;47.180;9.776;2023-03-23T20:52:08;13.30;99.90
19224;DHT22;9746;47.180;9.776;2023-03-23T20:54:37;13.30;99.90
